sensor_id;sensor_type;location;lat;lon;timestamp;pressure;altitude;pressure_sealevel;temperature;humidity
6387;BME280;3226;42.162;24.756;2023-01-05T00:01:35;100573.22;;;7.60;93.89
6387;BME280;3226;42.162;24.756;2023-01-05T00:04:04;100585.84;;;7.67;93.65
6387;BME280;3226;42.162;24.756;2023-01-05T00:06:33;100569.13;;;7.56;94.07
6387;BME280;3226;42.162;24.756;2023-01-05T00:09:03;100586.19;;;7.77;93.63
6387;BME280;3226;42.162;24.756;2023-01-05T00:11:33;100581.66;;;7.65;93.39
6387;BME280;3226;42.162;24.756;2023-01-05T00:14:20;100582.91;;;7.58;94.28
6387;BME280;3226;42.162;24.756;2023-01-05T00:17:06;100574.84;;;7.46;94.73
6387;BME280;3226;42.162;24.756;2023-01-05T00:19:51;100578.78;;;7.53;94.58
6387;BME280;3226;42.162;24.756;2023-01-05T00:22:41;100567.59;;;7.51;94.46
6387;BME280;3226;42.162;24.756;2023-01-05T00:25:13;100582.66;;;7.62;94.12
6387;BME280;3226;42.162;24.756;2023-01-05T00:27:44;100581.91;;;7.60;94.29
6387;BME280;3226;42.162;24.756;2023-01-05T00:30:15;100573.50;;;7.55;94.35
6387;BME280;3226;42.162;24.756;2023-01-05T00:32:44;100574.84;;;7.46;95.15
6387;BME280;3226;42.162;24.756;2023-01-05T00:35:13;100567.59;;;7.51;94.73
6387;BME280;3226;42.162;24.756;2023-01-05T00:37:41;100563.59;;;7.46;94.83
6387;BME280;3226;42.162;24.756;2023-01-05T00:40:12;100570.97;;;7.53;94.49
6387;BME280;3226;42.162;24.756;2023-01-05T00:42:42;100568.38;;;7.53;94.32
6387;BME280;3226;42.162;24.756;2023-01-05T00:45:13;100568.47;;;7.52;94.78
6387;BME280;3226;42.162;24.756;2023-01-05T00:47:41;100570.03;;;7.55;94.31
6387;BME280;3226;42.162;24.756;2023-01-05T00:50:12;100568.94;;;7.59;94.59
6387;BME280;3226;42.162;24.756;2023-01-05T00:52:41;100557.63;;;7.44;94.19
6387;BME280;3226;42.162;24.756;2023-01-05T00:55:09;100550.63;;;7.28;95.52
6387;BME280;3226;42.162;24.756;2023-01-05T00:57:37;100563.75;;;7.27;95.91
6387;BME280;3226;42.162;24.756;2023-01-05T01:00:12;100563.06;;;7.23;96.22
6387;BME280;3226;42.162;24.756;2023-01-05T01:02:41;100570.31;;;7.34;95.82
6387;BME280;3226;42.162;24.756;2023-01-05T01:05:09;100558.09;;;7.34;95.80
6387;BME280;3226;42.162;24.756;2023-01-05T01:07:37;100537.00;;;7.23;95.98
6387;BME280;3226;42.162;24.756;2023-01-05T01:10:06;100555.59;;;7.33;95.74
6387;BME280;3226;42.162;24.756;2023-01-05T01:12:35;100548.72;;;7.32;96.25
6387;BME280;3226;42.162;24.756;2023-01-05T01:15:04;100555.84;;;7.44;95.67
6387;BME280;3226;42.162;24.756;2023-01-05T01:17:34;100542.13;;;7.57;94.43
6387;BME280;3226;42.162;24.756;2023-01-05T01:20:03;100508.59;;;7.50;93.72
6387;BME280;3226;42.162;24.756;2023-01-05T01:22:32;100516.97;;;7.72;92.98
6387;BME280;3226;42.162;24.756;2023-01-05T01:24:59;100537.00;;;7.71;93.17
6387;BME280;3226;42.162;24.756;2023-01-05T01:27:28;100538.00;;;7.69;93.29
6387;BME280;3226;42.162;24.756;2023-01-05T01:29:57;100523.97;;;7.71;93.13
6387;BME280;3226;42.162;24.756;2023-01-05T01:32:25;100524.88;;;7.70;92.48
6387;BME280;3226;42.162;24.756;2023-01-05T01:34:54;100527.13;;;7.76;92.96
6387;BME280;3226;42.162;24.756;2023-01-05T01:37:22;100522.09;;;7.73;92.94
6387;BME280;3226;42.162;24.756;2023-01-05T01:39:50;100521.31;;;7.87;91.91
6387;BME280;3226;42.162;24.756;2023-01-05T01:42:20;100514.31;;;7.88;91.65
6387;BME280;3226;42.162;24.756;2023-01-05T01:44:53;100512.28;;;7.93;91.29
6387;BME280;3226;42.162;24.756;2023-01-05T01:47:27;100511.09;;;7.99;90.77
6387;BME280;3226;42.162;24.756;2023-01-05T01:49:59;100505.66;;;7.87;90.78
6387;BME280;3226;42.162;24.756;2023-01-05T01:52:28;100494.16;;;7.75;92.17
6387;BME280;3226;42.162;24.756;2023-01-05T01:55:00;100487.59;;;7.84;90.99
6387;BME280;3226;42.162;24.756;2023-01-05T01:57:28;100471.81;;;7.71;91.21
6387;BME280;3226;42.162;24.756;2023-01-05T01:59:59;100487.31;;;7.89;90.87
6387;BME280;3226;42.162;24.756;2023-01-05T02:02:29;100486.84;;;7.82;90.87
6387;BME280;3226;42.162;24.756;2023-01-05T02:05:02;100474.31;;;7.10;93.71
6387;BME280;3226;42.162;24.756;2023-01-05T02:07:32;100489.28;;;7.22;94.60
6387;BME280;3226;42.162;24.756;2023-01-05T02:10:01;100480.09;;;7.47;93.58
6387;BME280;3226;42.162;24.756;2023-01-05T02:12:37;100462.94;;;7.43;92.78
6387;BME280;3226;42.162;24.756;2023-01-05T02:15:20;100480.00;;;7.65;92.24
6387;BME280;3226;42.162;24.756;2023-01-05T02:18:01;100464.03;;;7.55;91.99
6387;BME280;3226;42.162;24.756;2023-01-05T02:20:43;100469.16;;;7.41;92.64
6387;BME280;3226;42.162;24.756;2023-01-05T02:29:40;100472.41;;;7.14;95.03
6387;BME280;3226;42.162;24.756;2023-01-05T02:32:21;100466.31;;;6.81;96.21
6387;BME280;3226;42.162;24.756;2023-01-05T02:34:56;100462.13;;;6.62;97.75
6387;BME280;3226;42.162;24.756;2023-01-05T02:37:33;100468.69;;;6.86;97.06
6387;BME280;3226;42.162;24.756;2023-01-05T02:40:06;100438.44;;;6.83;95.88
6387;BME280;3226;42.162;24.756;2023-01-05T02:42:38;100462.56;;;6.87;95.60
6387;BME280;3226;42.162;24.756;2023-01-05T02:45:08;100465.41;;;6.98;95.57
6387;BME280;3226;42.162;24.756;2023-01-05T02:47:42;100461.41;;;6.92;95.46
6387;BME280;3226;42.162;24.756;2023-01-05T02:50:18;100458.94;;;6.89;95.82
6387;BME280;3226;42.162;24.756;2023-01-05T02:52:52;100466.16;;;7.00;95.49
6387;BME280;3226;42.162;24.756;2023-01-05T02:55:28;100459.53;;;6.94;95.35
6387;BME280;3226;42.162;24.756;2023-01-05T02:58:02;100459.22;;;7.01;94.80
6387;BME280;3226;42.162;24.756;2023-01-05T03:00:34;100454.91;;;7.00;95.05
6387;BME280;3226;42.162;24.756;2023-01-05T03:03:08;100454.16;;;6.98;94.65
6387;BME280;3226;42.162;24.756;2023-01-05T03:05:43;100448.63;;;6.88;94.89
6387;BME280;3226;42.162;24.756;2023-01-05T03:08:15;100447.34;;;6.95;95.43
6387;BME280;3226;42.162;24.756;2023-01-05T03:11:00;100444.22;;;7.04;94.43
6387;BME280;3226;42.162;24.756;2023-01-05T03:13:52;100443.06;;;6.94;94.32
6387;BME280;3226;42.162;24.756;2023-01-05T03:16:25;100421.25;;;6.31;96.75
6387;BME280;3226;42.162;24.756;2023-01-05T03:18:56;100424.47;;;6.52;97.68
6387;BME280;3226;42.162;24.756;2023-01-05T03:21:43;100428.88;;;6.84;96.03
6387;BME280;3226;42.162;24.756;2023-01-05T03:24:30;100425.88;;;6.91;94.99
6387;BME280;3226;42.162;24.756;2023-01-05T03:27:15;100418.69;;;6.79;94.90
6387;BME280;3226;42.162;24.756;2023-01-05T03:30:02;100417.53;;;6.69;95.47
6387;BME280;3226;42.162;24.756;2023-01-05T03:32:49;100407.94;;;6.69;95.62
6387;BME280;3226;42.162;24.756;2023-01-05T03:35:41;100424.31;;;6.71;95.72
6387;BME280;3226;42.162;24.756;2023-01-05T03:38:15;100403.25;;;6.76;95.16
6387;BME280;3226;42.162;24.756;2023-01-05T03:40:50;100422.56;;;6.88;95.36
6387;BME280;3226;42.162;24.756;2023-01-05T03:43:19;100413.50;;;6.79;94.96
6387;BME280;3226;42.162;24.756;2023-01-05T03:45:51;100420.31;;;6.98;95.28
6387;BME280;3226;42.162;24.756;2023-01-05T03:48:20;100426.09;;;7.03;94.93
6387;BME280;3226;42.162;24.756;2023-01-05T03:50:50;100410.66;;;7.00;95.22
6387;BME280;3226;42.162;24.756;2023-01-05T03:53:18;100421.41;;;6.93;95.04
6387;BME280;3226;42.162;24.756;2023-01-05T03:55:46;100413.66;;;7.08;95.12
6387;BME280;3226;42.162;24.756;2023-01-05T03:58:14;100407.28;;;6.98;95.26
6387;BME280;3226;42.162;24.756;2023-01-05T04:00:42;100408.78;;;7.02;95.24
6387;BME280;3226;42.162;24.756;2023-01-05T04:03:10;100404.75;;;6.80;95.81
6387;BME280;3226;42.162;24.756;2023-01-05T04:05:39;100393.84;;;6.57;97.18
6387;BME280;3226;42.162;24.756;2023-01-05T04:08:08;100411.28;;;6.39;99.62
6387;BME280;3226;42.162;24.756;2023-01-05T04:10:36;100408.88;;;6.68;99.21
6387;BME280;3226;42.162;24.756;2023-01-05T04:13:04;100387.97;;;6.54;98.17
6387;BME280;3226;42.162;24.756;2023-01-05T04:15:32;100401.28;;;6.31;100.00
6387;BME280;3226;42.162;24.756;2023-01-05T04:18:00;100404.44;;;6.20;100.00
6387;BME280;3226;42.162;24.756;2023-01-05T04:20:29;100356.38;;;5.76;100.00
6387;BME280;3226;42.162;24.756;2023-01-05T04:22:57;100356.34;;;6.12;100.00
6387;BME280;3226;42.162;24.756;2023-01-05T04:25:26;100391.13;;;6.43;100.00
6387;BME280;3226;42.162;24.756;2023-01-05T04:27:54;100358.16;;;6.43;99.73
6387;BME280;3226;42.162;24.756;2023-01-05T04:30:22;100319.09;;;6.11;100.00
6387;BME280;3226;42.162;24.756;2023-01-05T04:32:50;100381.91;;;6.53;100.00
6387;BME280;3226;42.162;24.756;2023-01-05T04:35:19;100389.25;;;6.78;98.92
6387;BME280;3226;42.162;24.756;2023-01-05T04:37:47;100380.34;;;6.67;98.19
6387;BME280;3226;42.162;24.756;2023-01-05T04:40:15;100389.66;;;6.71;98.11
6387;BME280;3226;42.162;24.756;2023-01-05T04:42:45;100374.19;;;6.51;99.21
6387;BME280;3226;42.162;24.756;2023-01-05T04:45:13;100393.75;;;6.43;99.86
6387;BME280;3226;42.162;24.756;2023-01-05T04:47:41;100392.81;;;6.44;100.00
6387;BME280;3226;42.162;24.756;2023-01-05T04:50:09;100396.44;;;6.41;100.00
6387;BME280;3226;42.162;24.756;2023-01-05T04:52:37;100387.28;;;6.50;99.48
6387;BME280;3226;42.162;24.756;2023-01-05T04:55:06;100376.94;;;6.32;100.00
6387;BME280;3226;42.162;24.756;2023-01-05T04:57:34;100382.47;;;6.26;100.00
6387;BME280;3226;42.162;24.756;2023-01-05T05:00:05;100375.47;;;6.11;100.00
6387;BME280;3226;42.162;24.756;2023-01-05T05:02:33;100371.50;;;6.37;100.00
6387;BME280;3226;42.162;24.756;2023-01-05T05:05:02;100363.44;;;6.42;99.82
6387;BME280;3226;42.162;24.756;2023-01-05T05:07:30;100375.94;;;6.51;99.54
6387;BME280;3226;42.162;24.756;2023-01-05T05:09:58;100367.81;;;6.41;99.09
6387;BME280;3226;42.162;24.756;2023-01-05T05:12:26;100363.59;;;6.39;98.91
6387;BME280;3226;42.162;24.756;2023-01-05T05:14:54;100363.38;;;6.43;98.73
6387;BME280;3226;42.162;24.756;2023-01-05T05:17:23;100373.19;;;6.38;98.88
6387;BME280;3226;42.162;24.756;2023-01-05T05:19:51;100356.88;;;6.34;98.26
6387;BME280;3226;42.162;24.756;2023-01-05T05:22:19;100358.31;;;6.24;98.58
6387;BME280;3226;42.162;24.756;2023-01-05T05:24:47;100331.53;;;5.88;98.81
6387;BME280;3226;42.162;24.756;2023-01-05T05:27:15;100367.97;;;6.22;98.29
6387;BME280;3226;42.162;24.756;2023-01-05T05:29:43;100362.06;;;6.18;98.80
6387;BME280;3226;42.162;24.756;2023-01-05T05:32:11;100364.41;;;6.07;99.74
6387;BME280;3226;42.162;24.756;2023-01-05T05:34:41;100358.53;;;6.19;98.90
6387;BME280;3226;42.162;24.756;2023-01-05T05:37:09;100323.19;;;5.82;99.30
6387;BME280;3226;42.162;24.756;2023-01-05T05:39:37;100350.09;;;5.81;100.00
6387;BME280;3226;42.162;24.756;2023-01-05T05:42:05;100351.56;;;6.04;100.00
6387;BME280;3226;42.162;24.756;2023-01-05T05:44:33;100346.56;;;5.99;100.00
6387;BME280;3226;42.162;24.756;2023-01-05T05:47:01;100336.81;;;5.87;100.00
6387;BME280;3226;42.162;24.756;2023-01-05T05:49:29;100358.03;;;5.95;100.00
6387;BME280;3226;42.162;24.756;2023-01-05T05:51:59;100350.72;;;5.86;100.00
6387;BME280;3226;42.162;24.756;2023-01-05T05:54:27;100351.03;;;5.79;100.00
6387;BME280;3226;42.162;24.756;2023-01-05T05:56:55;100347.81;;;5.92;100.00
6387;BME280;3226;42.162;24.756;2023-01-05T05:59:23;100333.63;;;5.98;100.00
6387;BME280;3226;42.162;24.756;2023-01-05T06:01:51;100354.09;;;6.21;99.92
6387;BME280;3226;42.162;24.756;2023-01-05T06:04:19;100354.09;;;5.88;100.00
6387;BME280;3226;42.162;24.756;2023-01-05T06:06:47;100347.97;;;5.71;100.00
6387;BME280;3226;42.162;24.756;2023-01-05T06:09:16;100366.16;;;5.89;100.00
6387;BME280;3226;42.162;24.756;2023-01-05T06:11:44;100364.00;;;5.97;100.00
6387;BME280;3226;42.162;24.756;2023-01-05T06:14:13;100349.59;;;5.74;100.00
6387;BME280;3226;42.162;24.756;2023-01-05T06:16:41;100350.84;;;5.83;100.00
6387;BME280;3226;42.162;24.756;2023-01-05T06:19:09;100356.00;;;6.02;100.00
6387;BME280;3226;42.162;24.756;2023-01-05T06:21:37;100363.91;;;6.16;100.00
6387;BME280;3226;42.162;24.756;2023-01-05T06:24:06;100302.56;;;5.78;100.00
6387;BME280;3226;42.162;24.756;2023-01-05T06:26:35;100356.19;;;6.15;100.00
6387;BME280;3226;42.162;24.756;2023-01-05T06:29:03;100342.50;;;6.11;100.00
6387;BME280;3226;42.162;24.756;2023-01-05T06:31:31;100360.25;;;6.36;100.00
6387;BME280;3226;42.162;24.756;2023-01-05T06:33:59;100365.47;;;6.53;99.25
6387;BME280;3226;42.162;24.756;2023-01-05T06:36:27;100356.06;;;6.66;98.27
6387;BME280;3226;42.162;24.756;2023-01-05T06:38:55;100357.09;;;6.63;97.98
6387;BME280;3226;42.162;24.756;2023-01-05T06:41:23;100344.41;;;6.73;97.33
6387;BME280;3226;42.162;24.756;2023-01-05T06:43:53;100349.16;;;6.81;96.51
6387;BME280;3226;42.162;24.756;2023-01-05T06:46:21;100344.63;;;6.85;96.10
6387;BME280;3226;42.162;24.756;2023-01-05T06:48:49;100296.47;;;6.61;95.33
6387;BME280;3226;42.162;24.756;2023-01-05T06:51:18;100348.78;;;7.03;95.23
6387;BME280;3226;42.162;24.756;2023-01-05T06:53:46;100343.34;;;7.08;94.76
6387;BME280;3226;42.162;24.756;2023-01-05T06:56:14;100334.91;;;7.19;94.14
6387;BME280;3226;42.162;24.756;2023-01-05T06:58:42;100328.81;;;7.34;93.36
6387;BME280;3226;42.162;24.756;2023-01-05T07:01:11;100329.22;;;7.43;93.70
6387;BME280;3226;42.162;24.756;2023-01-05T07:03:39;100325.19;;;7.37;93.10
6387;BME280;3226;42.162;24.756;2023-01-05T07:06:08;100332.09;;;7.38;93.50
6387;BME280;3226;42.162;24.756;2023-01-05T07:08:40;100333.59;;;7.57;92.57
6387;BME280;3226;42.162;24.756;2023-01-05T07:11:08;100329.78;;;7.62;91.98
6387;BME280;3226;42.162;24.756;2023-01-05T07:13:36;100330.41;;;7.51;92.38
6387;BME280;3226;42.162;24.756;2023-01-05T07:16:05;100319.97;;;7.37;92.73
6387;BME280;3226;42.162;24.756;2023-01-05T07:18:34;100308.28;;;7.59;92.16
6387;BME280;3226;42.162;24.756;2023-01-05T07:21:02;100301.97;;;7.77;91.41
6387;BME280;3226;42.162;24.756;2023-01-05T07:23:30;100299.91;;;7.82;90.77
6387;BME280;3226;42.162;24.756;2023-01-05T07:25:59;100296.19;;;7.87;90.40
6387;BME280;3226;42.162;24.756;2023-01-05T07:28:27;100294.97;;;7.92;90.49
6387;BME280;3226;42.162;24.756;2023-01-05T07:30:56;100291.53;;;7.92;90.19
6387;BME280;3226;42.162;24.756;2023-01-05T07:33:30;100219.38;;;7.49;91.11
6387;BME280;3226;42.162;24.756;2023-01-05T07:36:07;100286.47;;;7.60;91.14
6387;BME280;3226;42.162;24.756;2023-01-05T07:38:36;100280.44;;;7.59;91.64
6387;BME280;3226;42.162;24.756;2023-01-05T07:52:35;100266.34;;;7.18;92.34
6387;BME280;3226;42.162;24.756;2023-01-05T07:55:06;100275.06;;;7.03;93.44
6387;BME280;3226;42.162;24.756;2023-01-05T07:57:34;100250.56;;;6.91;93.81
6387;BME280;3226;42.162;24.756;2023-01-05T08:00:03;100271.91;;;7.12;92.66
6387;BME280;3226;42.162;24.756;2023-01-05T08:02:31;100267.06;;;7.20;92.26
6387;BME280;3226;42.162;24.756;2023-01-05T08:05:02;100259.69;;;7.58;90.66
6387;BME280;3226;42.162;24.756;2023-01-05T08:07:31;100255.03;;;7.77;89.96
6387;BME280;3226;42.162;24.756;2023-01-05T08:10:00;100256.31;;;7.85;88.42
6387;BME280;3226;42.162;24.756;2023-01-05T08:12:45;100259.56;;;8.03;87.04
6387;BME280;3226;42.162;24.756;2023-01-05T08:15:31;100251.41;;;8.36;85.64
6387;BME280;3226;42.162;24.756;2023-01-05T08:17:59;100233.22;;;8.35;85.13
6387;BME280;3226;42.162;24.756;2023-01-05T08:20:27;100223.06;;;8.30;84.91
6387;BME280;3226;42.162;24.756;2023-01-05T08:22:56;100237.19;;;8.55;84.46
6387;BME280;3226;42.162;24.756;2023-01-05T08:25:24;100240.16;;;8.49;84.17
6387;BME280;3226;42.162;24.756;2023-01-05T08:27:53;100240.44;;;8.59;83.60
6387;BME280;3226;42.162;24.756;2023-01-05T08:30:21;100217.56;;;8.62;82.98
6387;BME280;3226;42.162;24.756;2023-01-05T08:32:49;100228.13;;;8.61;83.30
6387;BME280;3226;42.162;24.756;2023-01-05T08:35:17;100227.47;;;8.57;83.91
6387;BME280;3226;42.162;24.756;2023-01-05T08:37:45;100210.91;;;8.44;84.46
6387;BME280;3226;42.162;24.756;2023-01-05T08:40:15;100191.19;;;8.39;85.22
6387;BME280;3226;42.162;24.756;2023-01-05T08:42:43;100196.88;;;8.59;84.57
6387;BME280;3226;42.162;24.756;2023-01-05T08:45:14;100192.75;;;8.82;82.93
6387;BME280;3226;42.162;24.756;2023-01-05T08:47:42;100183.59;;;9.16;81.56
6387;BME280;3226;42.162;24.756;2023-01-05T08:50:11;100181.69;;;9.44;80.34
6387;BME280;3226;42.162;24.756;2023-01-05T08:52:39;100183.88;;;9.50;80.46
6387;BME280;3226;42.162;24.756;2023-01-05T08:55:08;100140.34;;;9.62;79.17
6387;BME280;3226;42.162;24.756;2023-01-05T08:57:37;100184.63;;;10.26;76.04
6387;BME280;3226;42.162;24.756;2023-01-05T09:00:07;100180.47;;;10.35;75.21
6387;BME280;3226;42.162;24.756;2023-01-05T09:02:35;100161.38;;;10.46;74.77
6387;BME280;3226;42.162;24.756;2023-01-05T09:05:04;100160.97;;;10.39;74.58
6387;BME280;3226;42.162;24.756;2023-01-05T09:07:32;100157.38;;;10.29;74.44
6387;BME280;3226;42.162;24.756;2023-01-05T09:10:00;100147.81;;;10.17;73.91
6387;BME280;3226;42.162;24.756;2023-01-05T09:12:28;100156.16;;;10.46;73.26
6387;BME280;3226;42.162;24.756;2023-01-05T09:15:00;100152.00;;;10.44;73.60
6387;BME280;3226;42.162;24.756;2023-01-05T09:17:29;100137.28;;;10.65;73.29
6387;BME280;3226;42.162;24.756;2023-01-05T09:19:58;100139.72;;;10.91;71.87
6387;BME280;3226;42.162;24.756;2023-01-05T09:22:29;100132.22;;;10.98;70.48
6387;BME280;3226;42.162;24.756;2023-01-05T09:24:57;100116.38;;;11.11;70.17
6387;BME280;3226;42.162;24.756;2023-01-05T09:27:25;100125.28;;;11.54;69.03
6387;BME280;3226;42.162;24.756;2023-01-05T09:29:53;100116.53;;;11.76;67.30
6387;BME280;3226;42.162;24.756;2023-01-05T09:32:23;100029.75;;;11.35;66.35
6387;BME280;3226;42.162;24.756;2023-01-05T09:34:51;100089.59;;;11.74;66.84
6387;BME280;3226;42.162;24.756;2023-01-05T09:37:19;100100.94;;;11.75;66.99
6387;BME280;3226;42.162;24.756;2023-01-05T09:39:47;100100.94;;;11.75;67.02
6387;BME280;3226;42.162;24.756;2023-01-05T09:42:18;100099.16;;;11.64;66.77
6387;BME280;3226;42.162;24.756;2023-01-05T09:44:51;100094.28;;;11.70;66.46
6387;BME280;3226;42.162;24.756;2023-01-05T09:47:30;100085.44;;;11.71;66.51
6387;BME280;3226;42.162;24.756;2023-01-05T09:49:59;100076.63;;;11.73;67.67
6387;BME280;3226;42.162;24.756;2023-01-05T09:52:28;100078.78;;;12.00;65.53
6387;BME280;3226;42.162;24.756;2023-01-05T09:55:09;100069.66;;;12.15;64.86
6387;BME280;3226;42.162;24.756;2023-01-05T09:57:42;100049.25;;;11.86;65.47
6387;BME280;3226;42.162;24.756;2023-01-05T10:00:14;100019.88;;;11.60;66.23
6387;BME280;3226;42.162;24.756;2023-01-05T10:02:48;100023.25;;;11.83;66.07
6387;BME280;3226;42.162;24.756;2023-01-05T10:05:17;100027.72;;;12.04;65.22
6387;BME280;3226;42.162;24.756;2023-01-05T10:07:51;100020.69;;;12.26;64.05
6387;BME280;3226;42.162;24.756;2023-01-05T10:10:27;100010.28;;;12.46;63.16
6387;BME280;3226;42.162;24.756;2023-01-05T10:13:02;100006.44;;;12.50;62.60
6387;BME280;3226;42.162;24.756;2023-01-05T10:15:33;99994.63;;;12.34;62.09
6387;BME280;3226;42.162;24.756;2023-01-05T10:18:08;99995.41;;;12.25;62.77
6387;BME280;3226;42.162;24.756;2023-01-05T10:20:44;99986.28;;;12.29;61.83
6387;BME280;3226;42.162;24.756;2023-01-05T10:23:22;99968.44;;;12.54;61.88
6387;BME280;3226;42.162;24.756;2023-01-05T10:25:54;99980.13;;;12.40;61.43
6387;BME280;3226;42.162;24.756;2023-01-05T10:28:33;99952.88;;;11.89;62.13
6387;BME280;3226;42.162;24.756;2023-01-05T10:31:10;99963.91;;;11.92;63.03
6387;BME280;3226;42.162;24.756;2023-01-05T10:33:47;99964.25;;;11.99;62.95
6387;BME280;3226;42.162;24.756;2023-01-05T10:36:38;99961.25;;;12.25;62.97
6387;BME280;3226;42.162;24.756;2023-01-05T10:39:47;99919.03;;;11.95;61.77
6387;BME280;3226;42.162;24.756;2023-01-05T10:42:32;99951.47;;;12.58;60.55
6387;BME280;3226;42.162;24.756;2023-01-05T10:45:07;99943.47;;;12.69;60.74
6387;BME280;3226;42.162;24.756;2023-01-05T10:47:38;99917.81;;;12.52;61.00
6387;BME280;3226;42.162;24.756;2023-01-05T10:50:26;99928.00;;;12.86;60.23
6387;BME280;3226;42.162;24.756;2023-01-05T10:52:56;99931.09;;;12.91;59.68
6387;BME280;3226;42.162;24.756;2023-01-05T10:55:26;99928.63;;;13.19;58.60
6387;BME280;3226;42.162;24.756;2023-01-05T10:57:55;99922.00;;;13.35;57.37
6387;BME280;3226;42.162;24.756;2023-01-05T11:00:38;99918.56;;;13.44;57.60
6387;BME280;3226;42.162;24.756;2023-01-05T11:03:12;99911.38;;;13.46;56.95
6387;BME280;3226;42.162;24.756;2023-01-05T11:05:45;99900.44;;;13.51;56.70
6387;BME280;3226;42.162;24.756;2023-01-05T11:08:15;99900.16;;;13.64;55.26
6387;BME280;3226;42.162;24.756;2023-01-05T11:10:49;99893.06;;;13.54;54.84
6387;BME280;3226;42.162;24.756;2023-01-05T11:13:31;99895.69;;;13.35;54.61
6387;BME280;3226;42.162;24.756;2023-01-05T11:16:05;99864.69;;;13.28;54.56
6387;BME280;3226;42.162;24.756;2023-01-05T11:18:38;99885.06;;;13.46;55.11
6387;BME280;3226;42.162;24.756;2023-01-05T11:21:14;99874.41;;;13.48;53.77
6387;BME280;3226;42.162;24.756;2023-01-05T11:23:44;99885.44;;;13.71;52.95
6387;BME280;3226;42.162;24.756;2023-01-05T11:26:28;99872.00;;;13.64;53.31
6387;BME280;3226;42.162;24.756;2023-01-05T11:29:02;99870.50;;;13.62;53.47
6387;BME280;3226;42.162;24.756;2023-01-05T11:31:35;99860.81;;;13.52;53.00
6387;BME280;3226;42.162;24.756;2023-01-05T11:34:15;99859.44;;;13.48;52.87
6387;BME280;3226;42.162;24.756;2023-01-05T11:36:51;99861.47;;;13.74;52.66
6387;BME280;3226;42.162;24.756;2023-01-05T11:39:26;99838.38;;;13.38;52.67
6387;BME280;3226;42.162;24.756;2023-01-05T11:42:14;99842.94;;;13.56;52.67
6387;BME280;3226;42.162;24.756;2023-01-05T11:44:52;99826.06;;;13.19;53.31
6387;BME280;3226;42.162;24.756;2023-01-05T11:47:25;99843.38;;;13.22;54.08
6387;BME280;3226;42.162;24.756;2023-01-05T11:50:01;99840.47;;;13.35;53.98
6387;BME280;3226;42.162;24.756;2023-01-05T11:52:38;99844.34;;;13.30;53.64
6387;BME280;3226;42.162;24.756;2023-01-05T11:55:29;99836.88;;;13.46;53.51
6387;BME280;3226;42.162;24.756;2023-01-05T11:58:14;99831.72;;;13.34;53.48
6387;BME280;3226;42.162;24.756;2023-01-05T12:01:08;99825.38;;;13.37;53.75
6387;BME280;3226;42.162;24.756;2023-01-05T12:03:58;99826.03;;;13.58;53.04
6387;BME280;3226;42.162;24.756;2023-01-05T12:06:40;99814.00;;;13.66;52.81
6387;BME280;3226;42.162;24.756;2023-01-05T12:09:18;99799.56;;;13.70;53.07
6387;BME280;3226;42.162;24.756;2023-01-05T12:12:02;99811.06;;;13.69;53.29
6387;BME280;3226;42.162;24.756;2023-01-05T12:14:45;99811.50;;;13.54;52.36
6387;BME280;3226;42.162;24.756;2023-01-05T12:17:22;99802.09;;;13.62;52.37
6387;BME280;3226;42.162;24.756;2023-01-05T12:20:09;99807.56;;;13.78;52.16
6387;BME280;3226;42.162;24.756;2023-01-05T12:23:04;99810.53;;;14.03;52.10
6387;BME280;3226;42.162;24.756;2023-01-05T12:25:46;99795.84;;;14.00;51.72
6387;BME280;3226;42.162;24.756;2023-01-05T12:28:30;99799.53;;;14.08;51.74
6387;BME280;3226;42.162;24.756;2023-01-05T12:31:21;99796.53;;;14.02;51.78
6387;BME280;3226;42.162;24.756;2023-01-05T12:34:26;99788.28;;;14.15;51.44
6387;BME280;3226;42.162;24.756;2023-01-05T12:37:10;99785.88;;;14.04;51.59
6387;BME280;3226;42.162;24.756;2023-01-05T12:40:12;99783.66;;;13.99;51.85
6387;BME280;3226;42.162;24.756;2023-01-05T12:42:56;99778.38;;;14.27;51.34
6387;BME280;3226;42.162;24.756;2023-01-05T12:45:40;99780.59;;;14.32;50.85
6387;BME280;3226;42.162;24.756;2023-01-05T12:48:12;99777.84;;;14.24;50.99
6387;BME280;3226;42.162;24.756;2023-01-05T12:50:44;99774.84;;;14.37;50.89
6387;BME280;3226;42.162;24.756;2023-01-05T12:53:18;99765.59;;;14.32;50.10
6387;BME280;3226;42.162;24.756;2023-01-05T12:55:53;99776.22;;;14.41;50.05
6387;BME280;3226;42.162;24.756;2023-01-05T12:58:26;99774.88;;;14.55;49.76
6387;BME280;3226;42.162;24.756;2023-01-05T13:00:58;99765.25;;;14.45;50.12
6387;BME280;3226;42.162;24.756;2023-01-05T13:03:31;99774.94;;;14.45;50.11
6387;BME280;3226;42.162;24.756;2023-01-05T13:06:03;99767.88;;;14.45;50.21
6387;BME280;3226;42.162;24.756;2023-01-05T13:08:37;99767.78;;;14.37;50.45
6387;BME280;3226;42.162;24.756;2023-01-05T13:11:14;99770.66;;;14.44;50.57
6387;BME280;3226;42.162;24.756;2023-01-05T13:13:48;99759.56;;;14.22;50.28
6387;BME280;3226;42.162;24.756;2023-01-05T13:16:20;99771.81;;;14.13;50.62
6387;BME280;3226;42.162;24.756;2023-01-05T13:18:53;99776.94;;;14.15;50.74
6387;BME280;3226;42.162;24.756;2023-01-05T13:21:24;99778.94;;;14.03;50.64
6387;BME280;3226;42.162;24.756;2023-01-05T13:23:56;99780.25;;;14.17;50.88
6387;BME280;3226;42.162;24.756;2023-01-05T13:26:25;99777.75;;;14.15;50.68
6387;BME280;3226;42.162;24.756;2023-01-05T13:29:01;99782.13;;;14.25;50.21
6387;BME280;3226;42.162;24.756;2023-01-05T13:32:01;99777.97;;;14.32;49.91
6387;BME280;3226;42.162;24.756;2023-01-05T13:34:47;99734.22;;;14.21;49.54
6387;BME280;3226;42.162;24.756;2023-01-05T13:37:30;99770.44;;;14.55;49.40
6387;BME280;3226;42.162;24.756;2023-01-05T13:40:13;99765.84;;;14.57;49.79
6387;BME280;3226;42.162;24.756;2023-01-05T13:43:01;99764.19;;;14.38;49.45
6387;BME280;3226;42.162;24.756;2023-01-05T13:45:59;99752.03;;;14.09;49.86
6387;BME280;3226;42.162;24.756;2023-01-05T13:48:53;99742.31;;;13.82;50.44
6387;BME280;3226;42.162;24.756;2023-01-05T13:51:46;99737.91;;;13.72;51.08
6387;BME280;3226;42.162;24.756;2023-01-05T13:54:31;99744.22;;;13.62;51.55
6387;BME280;3226;42.162;24.756;2023-01-05T13:57:18;99742.81;;;13.57;51.62
6387;BME280;3226;42.162;24.756;2023-01-05T13:59:49;99749.88;;;13.67;51.42